sensor_id;sensor_type;location;lat;lon;timestamp;P1;durP1;ratioP1;P2;durP2;ratioP2
37365;SDS011;23239;51.504;7.456;2023-09-19T00:00:00;5.9;;;2.0;;
37365;SDS011;23239;51.504;7.456;2023-09-19T00:01:00;5.9;;;2.0;;
37365;SDS011;23239;51.504;7.456;2023-09-19T00:02:00;5.9;;;2.0;;
37365;SDS011;23239;51.504;7.456;2023-09-19T00:03:00;5.9;;;2.0;;
37365;SDS011;23239;51.504;7.456;2023-09-19T00:04:00;5.9;;;2.0;;
37365;SDS011;23239;51.504;7.456;2023-09-19T00:05:00;6.9;;;2.1;;
37365;SDS011;23239;51.504;7.456;2023-09-19T00:06:00;6.9;;;2.1;;
37365;SDS011;23239;51.504;7.456;2023-09-19T00:07:00;6.9;;;2.1;;
37365;SDS011;23239;51.504;7.456;2023-09-19T00:08:00;6.9;;;2.1;;
37365;SDS011;23239;51.504;7.456;2023-09-19T00:09:00;6.9;;;2.1;;
37365;SDS011;23239;51.504;7.456;2023-09-19T00:10:00;4.1;;;1.9;;
37365;SDS011;23239;51.504;7.456;2023-09-19T00:11:00;4.1;;;1.9;;
37365;SDS011;23239;51.504;7.456;2023-09-19T00:12:00;4.1;;;1.9;;
37365;SDS011;23239;51.504;7.456;2023-09-19T00:13:00;4.1;;;1.9;;
37365;SDS011;23239;51.504;7.456;2023-09-19T00:14:00;4.1;;;1.9;;
37365;SDS011;23239;51.504;7.456;2023-09-19T00:15:00;7.3;;;1.9;;
37365;SDS011;23239;51.504;7.456;2023-09-19T00:16:00;7.3;;;1.9;;
37365;SDS011;23239;51.504;7.456;2023-09-19T00:17:00;7.3;;;1.9;;
37365;SDS011;23239;51.504;7.456;2023-09-19T00:18:00;7.3;;;1.9;;
37365;SDS011;23239;51.504;7.456;2023-09-19T00:19:00;7.3;;;1.9;;
37365;SDS011;23239;51.504;7.456;2023-09-19T00:20:00;7.7;;;2.5;;
37365;SDS011;23239;51.504;7.456;2023-09-19T00:21:01;7.7;;;2.5;;
37365;SDS011;23239;51.504;7.456;2023-09-19T00:22:00;7.7;;;2.5;;
37365;SDS011;23239;51.504;7.456;2023-09-19T00:23:00;7.7;;;2.5;;
37365;SDS011;23239;51.504;7.456;2023-09-19T00:24:00;7.7;;;2.5;;
37365;SDS011;23239;51.504;7.456;2023-09-19T00:25:00;9.6;;;2.2;;
37365;SDS011;23239;51.504;7.456;2023-09-19T00:26:00;9.6;;;2.2;;
37365;SDS011;23239;51.504;7.456;2023-09-19T00:27:00;9.6;;;2.2;;
37365;SDS011;23239;51.504;7.456;2023-09-19T00:28:00;9.6;;;2.2;;
37365;SDS011;23239;51.504;7.456;2023-09-19T00:29:00;9.6;;;2.2;;
37365;SDS011;23239;51.504;7.456;2023-09-19T00:30:00;7.1;;;2.3;;
37365;SDS011;23239;51.504;7.456;2023-09-19T00:31:00;7.1;;;2.3;;
37365;SDS011;23239;51.504;7.456;2023-09-19T00:32:00;7.1;;;2.3;;
37365;SDS011;23239;51.504;7.456;2023-09-19T00:33:00;7.1;;;2.3;;
37365;SDS011;23239;51.504;7.456;2023-09-19T00:34:00;7.1;;;2.3;;
37365;SDS011;23239;51.504;7.456;2023-09-19T00:35:00;9.7;;;2.3;;
37365;SDS011;23239;51.504;7.456;2023-09-19T00:36:00;9.7;;;2.3;;
37365;SDS011;23239;51.504;7.456;2023-09-19T00:37:00;9.7;;;2.3;;
37365;SDS011;23239;51.504;7.456;2023-09-19T00:38:00;9.7;;;2.3;;
37365;SDS011;23239;51.504;7.456;2023-09-19T00:39:00;9.7;;;2.3;;
37365;SDS011;23239;51.504;7.456;2023-09-19T00:40:00;8.1;;;2.1;;
37365;SDS011;23239;51.504;7.456;2023-09-19T00:41:00;8.1;;;2.1;;
37365;SDS011;23239;51.504;7.456;2023-09-19T00:42:00;8.1;;;2.1;;
37365;SDS011;23239;51.504;7.456;2023-09-19T00:43:00;8.1;;;2.1;;
37365;SDS011;23239;51.504;7.456;2023-09-19T00:44:00;8.1;;;2.1;;
37365;SDS011;23239;51.504;7.456;2023-09-19T00:45:00;8.8;;;2.5;;
37365;SDS011;23239;51.504;7.456;2023-09-19T00:46:00;8.8;;;2.5;;
37365;SDS011;23239;51.504;7.456;2023-09-19T00:47:00;8.8;;;2.5;;
37365;SDS011;23239;51.504;7.456;2023-09-19T00:48:00;8.8;;;2.5;;
37365;SDS011;23239;51.504;7.456;2023-09-19T00:49:00;8.8;;;2.5;;
37365;SDS011;23239;51.504;7.456;2023-09-19T00:50:00;8.6;;;2.9;;
37365;SDS011;23239;51.504;7.456;2023-09-19T00:51:02;8.6;;;2.9;;
37365;SDS011;23239;51.504;7.456;2023-09-19T00:52:00;8.6;;;2.9;;
37365;SDS011;23239;51.504;7.456;2023-09-19T00:53:00;8.6;;;2.9;;
37365;SDS011;23239;51.504;7.456;2023-09-19T00:54:00;8.6;;;2.9;;
37365;SDS011;23239;51.504;7.456;2023-09-19T00:55:00;8.5;;;2.3;;
37365;SDS011;23239;51.504;7.456;2023-09-19T00:56:00;8.5;;;2.3;;
37365;SDS011;23239;51.504;7.456;2023-09-19T00:57:00;8.5;;;2.3;;
37365;SDS011;23239;51.504;7.456;2023-09-19T00:58:00;8.5;;;2.3;;
37365;SDS011;23239;51.504;7.456;2023-09-19T00:59:00;8.5;;;2.3;;
37365;SDS011;23239;51.504;7.456;2023-09-19T01:00:01;6.7;;;2.1;;
37365;SDS011;23239;51.504;7.456;2023-09-19T01:01:01;6.7;;;2.1;;
37365;SDS011;23239;51.504;7.456;2023-09-19T01:02:00;6.7;;;2.1;;
37365;SDS011;23239;51.504;7.456;2023-09-19T01:03:00;6.7;;;2.1;;
37365;SDS011;23239;51.504;7.456;2023-09-19T01:04:00;6.7;;;2.1;;
37365;SDS011;23239;51.504;7.456;2023-09-19T01:05:01;10.2;;;2.2;;
37365;SDS011;23239;51.504;7.456;2023-09-19T01:06:00;10.2;;;2.2;;
37365;SDS011;23239;51.504;7.456;2023-09-19T01:07:00;10.2;;;2.2;;
37365;SDS011;23239;51.504;7.456;2023-09-19T01:08:00;10.2;;;2.2;;
37365;SDS011;23239;51.504;7.456;2023-09-19T01:09:00;10.2;;;2.2;;
37365;SDS011;23239;51.504;7.456;2023-09-19T01:10:00;9.5;;;2.4;;
37365;SDS011;23239;51.504;7.456;2023-09-19T01:11:01;9.5;;;2.4;;
37365;SDS011;23239;51.504;7.456;2023-09-19T01:12:01;9.5;;;2.4;;
37365;SDS011;23239;51.504;7.456;2023-09-19T01:13:02;9.5;;;2.4;;
37365;SDS011;23239;51.504;7.456;2023-09-19T01:14:02;9.5;;;2.4;;
37365;SDS011;23239;51.504;7.456;2023-09-19T01:15:03;12.4;;;2.7;;
37365;SDS011;23239;51.504;7.456;2023-09-19T01:16:03;12.4;;;2.7;;
37365;SDS011;23239;51.504;7.456;2023-09-19T01:17:00;12.4;;;2.7;;
37365;SDS011;23239;51.504;7.456;2023-09-19T01:18:02;12.4;;;2.7;;
37365;SDS011;23239;51.504;7.456;2023-09-19T01:19:02;12.4;;;2.7;;
37365;SDS011;23239;51.504;7.456;2023-09-19T01:20:03;11.8;;;2.7;;
37365;SDS011;23239;51.504;7.456;2023-09-19T01:21:03;11.8;;;2.7;;
37365;SDS011;23239;51.504;7.456;2023-09-19T01:22:00;11.8;;;2.7;;
37365;SDS011;23239;51.504;7.456;2023-09-19T01:23:03;11.8;;;2.7;;
37365;SDS011;23239;51.504;7.456;2023-09-19T01:24:09;11.8;;;2.7;;
37365;SDS011;23239;51.504;7.456;2023-09-19T01:26:05;10.6;;;2.7;;
37365;SDS011;23239;51.504;7.456;2023-09-19T01:27:06;10.6;;;2.7;;
37365;SDS011;23239;51.504;7.456;2023-09-19T01:28:06;10.6;;;2.7;;
37365;SDS011;23239;51.504;7.456;2023-09-19T01:29:01;10.6;;;2.7;;
37365;SDS011;23239;51.504;7.456;2023-09-19T01:30:06;11.3;;;2.1;;
37365;SDS011;23239;51.504;7.456;2023-09-19T01:31:00;11.3;;;2.1;;
37365;SDS011;23239;51.504;7.456;2023-09-19T01:32:01;11.3;;;2.1;;
37365;SDS011;23239;51.504;7.456;2023-09-19T01:33:00;11.3;;;2.1;;
37365;SDS011;23239;51.504;7.456;2023-09-19T01:34:00;11.3;;;2.1;;
37365;SDS011;23239;51.504;7.456;2023-09-19T01:35:00;9.4;;;2.6;;
37365;SDS011;23239;51.504;7.456;2023-09-19T01:36:00;9.4;;;2.6;;
37365;SDS011;23239;51.504;7.456;2023-09-19T01:37:00;9.4;;;2.6;;
37365;SDS011;23239;51.504;7.456;2023-09-19T01:38:00;9.4;;;2.6;;
37365;SDS011;23239;51.504;7.456;2023-09-19T01:39:00;9.4;;;2.6;;
37365;SDS011;23239;51.504;7.456;2023-09-19T01:40:01;11.0;;;2.6;;
37365;SDS011;23239;51.504;7.456;2023-09-19T01:41:03;11.0;;;2.6;;
37365;SDS011;23239;51.504;7.456;2023-09-19T01:42:02;11.0;;;2.6;;
37365;SDS011;23239;51.504;7.456;2023-09-19T01:43:03;11.0;;;2.6;;
37365;SDS011;23239;51.504;7.456;2023-09-19T01:44:00;11.0;;;2.6;;
37365;SDS011;23239;51.504;7.456;2023-09-19T01:45:03;11.2;;;2.6;;
37365;SDS011;23239;51.504;7.456;2023-09-19T01:46:02;11.2;;;2.6;;
37365;SDS011;23239;51.504;7.456;2023-09-19T01:47:01;11.2;;;2.6;;
37365;SDS011;23239;51.504;7.456;2023-09-19T01:48:02;11.2;;;2.6;;
37365;SDS011;23239;51.504;7.456;2023-09-19T01:49:02;11.2;;;2.6;;
37365;SDS011;23239;51.504;7.456;2023-09-19T01:50:02;11.8;;;2.7;;
37365;SDS011;23239;51.504;7.456;2023-09-19T01:51:01;11.8;;;2.7;;
37365;SDS011;23239;51.504;7.456;2023-09-19T01:52:02;11.8;;;2.7;;
37365;SDS011;23239;51.504;7.456;2023-09-19T01:53:02;11.8;;;2.7;;
37365;SDS011;23239;51.504;7.456;2023-09-19T01:54:01;11.8;;;2.7;;
37365;SDS011;23239;51.504;7.456;2023-09-19T01:55:01;11.1;;;2.7;;
37365;SDS011;23239;51.504;7.456;2023-09-19T01:56:00;11.1;;;2.7;;
37365;SDS011;23239;51.504;7.456;2023-09-19T01:57:01;11.1;;;2.7;;
37365;SDS011;23239;51.504;7.456;2023-09-19T01:58:01;11.1;;;2.7;;
37365;SDS011;23239;51.504;7.456;2023-09-19T01:59:02;11.1;;;2.7;;
37365;SDS011;23239;51.504;7.456;2023-09-19T02:00:01;12.2;;;2.9;;
37365;SDS011;23239;51.504;7.456;2023-09-19T02:01:00;12.2;;;2.9;;
37365;SDS011;23239;51.504;7.456;2023-09-19T02:02:00;12.2;;;2.9;;
37365;SDS011;23239;51.504;7.456;2023-09-19T02:03:00;12.2;;;2.9;;
37365;SDS011;23239;51.504;7.456;2023-09-19T02:04:00;12.2;;;2.9;;
37365;SDS011;23239;51.504;7.456;2023-09-19T02:05:00;8.7;;;2.6;;
37365;SDS011;23239;51.504;7.456;2023-09-19T02:06:00;8.7;;;2.6;;
37365;SDS011;23239;51.504;7.456;2023-09-19T02:07:00;8.7;;;2.6;;
37365;SDS011;23239;51.504;7.456;2023-09-19T02:08:00;8.7;;;2.6;;
37365;SDS011;23239;51.504;7.456;2023-09-19T02:09:00;8.7;;;2.6;;
37365;SDS011;23239;51.504;7.456;2023-09-19T02:10:00;10.5;;;2.7;;
37365;SDS011;23239;51.504;7.456;2023-09-19T02:11:00;10.5;;;2.7;;
37365;SDS011;23239;51.504;7.456;2023-09-19T02:12:00;10.5;;;2.7;;
37365;SDS011;23239;51.504;7.456;2023-09-19T02:13:00;10.5;;;2.7;;
37365;SDS011;23239;51.504;7.456;2023-09-19T02:14:00;10.5;;;2.7;;
37365;SDS011;23239;51.504;7.456;2023-09-19T02:15:00;9.6;;;2.4;;
37365;SDS011;23239;51.504;7.456;2023-09-19T02:16:00;9.6;;;2.4;;
37365;SDS011;23239;51.504;7.456;2023-09-19T02:17:00;9.6;;;2.4;;
37365;SDS011;23239;51.504;7.456;2023-09-19T02:18:00;9.6;;;2.4;;
37365;SDS011;23239;51.504;7.456;2023-09-19T02:19:00;9.6;;;2.4;;
37365;SDS011;23239;51.504;7.456;2023-09-19T02:20:00;10.9;;;2.6;;
37365;SDS011;23239;51.504;7.456;2023-09-19T02:21:00;10.9;;;2.6;;
37365;SDS011;23239;51.504;7.456;2023-09-19T02:22:00;10.9;;;2.6;;
37365;SDS011;23239;51.504;7.456;2023-09-19T02:23:00;10.9;;;2.6;;
37365;SDS011;23239;51.504;7.456;2023-09-19T02:24:00;10.9;;;2.6;;
37365;SDS011;23239;51.504;7.456;2023-09-19T02:25:00;8.6;;;2.3;;
37365;SDS011;23239;51.504;7.456;2023-09-19T02:26:00;8.6;;;2.3;;
37365;SDS011;23239;51.504;7.456;2023-09-19T02:27:00;8.6;;;2.3;;
37365;SDS011;23239;51.504;7.456;2023-09-19T02:28:00;8.6;;;2.3;;
37365;SDS011;23239;51.504;7.456;2023-09-19T02:29:00;8.6;;;2.3;;
37365;SDS011;23239;51.504;7.456;2023-09-19T02:30:02;9.3;;;2.7;;
37365;SDS011;23239;51.504;7.456;2023-09-19T02:31:00;9.3;;;2.7;;
37365;SDS011;23239;51.504;7.456;2023-09-19T02:32:00;9.3;;;2.7;;
37365;SDS011;23239;51.504;7.456;2023-09-19T02:33:00;9.3;;;2.7;;
37365;SDS011;23239;51.504;7.456;2023-09-19T02:34:00;9.3;;;2.7;;
37365;SDS011;23239;51.504;7.456;2023-09-19T02:35:00;10.0;;;2.3;;
37365;SDS011;23239;51.504;7.456;2023-09-19T02:36:00;10.0;;;2.3;;
37365;SDS011;23239;51.504;7.456;2023-09-19T02:37:00;10.0;;;2.3;;
37365;SDS011;23239;51.504;7.456;2023-09-19T02:38:00;10.0;;;2.3;;
37365;SDS011;23239;51.504;7.456;2023-09-19T02:39:00;10.0;;;2.3;;
37365;SDS011;23239;51.504;7.456;2023-09-19T02:40:00;13.9;;;2.7;;
37365;SDS011;23239;51.504;7.456;2023-09-19T02:41:00;13.9;;;2.7;;
37365;SDS011;23239;51.504;7.456;2023-09-19T02:42:00;13.9;;;2.7;;
37365;SDS011;23239;51.504;7.456;2023-09-19T02:43:00;13.9;;;2.7;;
37365;SDS011;23239;51.504;7.456;2023-09-19T02:44:00;13.9;;;2.7;;
37365;SDS011;23239;51.504;7.456;2023-09-19T02:45:00;9.1;;;2.6;;
37365;SDS011;23239;51.504;7.456;2023-09-19T02:46:00;9.1;;;2.6;;
37365;SDS011;23239;51.504;7.456;2023-09-19T02:47:00;9.1;;;2.6;;
37365;SDS011;23239;51.504;7.456;2023-09-19T02:48:00;9.1;;;2.6;;
37365;SDS011;23239;51.504;7.456;2023-09-19T02:49:00;9.1;;;2.6;;
37365;SDS011;23239;51.504;7.456;2023-09-19T02:50:00;11.8;;;2.8;;
37365;SDS011;23239;51.504;7.456;2023-09-19T02:51:00;11.8;;;2.8;;
37365;SDS011;23239;51.504;7.456;2023-09-19T02:52:00;11.8;;;2.8;;
37365;SDS011;23239;51.504;7.456;2023-09-19T02:53:00;11.8;;;2.8;;
37365;SDS011;23239;51.504;7.456;2023-09-19T02:54:00;11.8;;;2.8;;
37365;SDS011;23239;51.504;7.456;2023-09-19T02:55:00;10.7;;;2.5;;
37365;SDS011;23239;51.504;7.456;2023-09-19T02:56:00;10.7;;;2.5;;
37365;SDS011;23239;51.504;7.456;2023-09-19T02:57:00;10.7;;;2.5;;
37365;SDS011;23239;51.504;7.456;2023-09-19T02:58:00;10.7;;;2.5;;
37365;SDS011;23239;51.504;7.456;2023-09-19T02:59:00;10.7;;;2.5;;
37365;SDS011;23239;51.504;7.456;2023-09-19T03:00:00;10.3;;;3.1;;
37365;SDS011;23239;51.504;7.456;2023-09-19T03:01:07;10.3;;;3.1;;
37365;SDS011;23239;51.504;7.456;2023-09-19T03:02:00;10.3;;;3.1;;
37365;SDS011;23239;51.504;7.456;2023-09-19T03:03:00;10.3;;;3.1;;
37365;SDS011;23239;51.504;7.456;2023-09-19T03:04:00;10.3;;;3.1;;
37365;SDS011;23239;51.504;7.456;2023-09-19T03:05:00;10.2;;;2.6;;
37365;SDS011;23239;51.504;7.456;2023-09-19T03:06:00;10.2;;;2.6;;
37365;SDS011;23239;51.504;7.456;2023-09-19T03:07:00;10.2;;;2.6;;
37365;SDS011;23239;51.504;7.456;2023-09-19T03:08:00;10.2;;;2.6;;
37365;SDS011;23239;51.504;7.456;2023-09-19T03:09:00;10.2;;;2.6;;
37365;SDS011;23239;51.504;7.456;2023-09-19T03:10:00;13.9;;;3.2;;
37365;SDS011;23239;51.504;7.456;2023-09-19T03:11:00;13.9;;;3.2;;
37365;SDS011;23239;51.504;7.456;2023-09-19T03:12:00;13.9;;;3.2;;
37365;SDS011;23239;51.504;7.456;2023-09-19T03:13:00;13.9;;;3.2;;
37365;SDS011;23239;51.504;7.456;2023-09-19T03:14:00;13.9;;;3.2;;
37365;SDS011;23239;51.504;7.456;2023-09-19T03:15:00;11.9;;;2.8;;
37365;SDS011;23239;51.504;7.456;2023-09-19T03:16:00;11.9;;;2.8;;
37365;SDS011;23239;51.504;7.456;2023-09-19T03:17:00;11.9;;;2.8;;
37365;SDS011;23239;51.504;7.456;2023-09-19T03:18:00;11.9;;;2.8;;
37365;SDS011;23239;51.504;7.456;2023-09-19T03:19:00;11.9;;;2.8;;
37365;SDS011;23239;51.504;7.456;2023-09-19T03:20:00;9.1;;;2.5;;
37365;SDS011;23239;51.504;7.456;2023-09-19T03:21:00;9.1;;;2.5;;
37365;SDS011;23239;51.504;7.456;2023-09-19T03:22:00;9.1;;;2.5;;
37365;SDS011;23239;51.504;7.456;2023-09-19T03:23:00;9.1;;;2.5;;
37365;SDS011;23239;51.504;7.456;2023-09-19T03:24:00;9.1;;;2.5;;
37365;SDS011;23239;51.504;7.456;2023-09-19T03:25:00;13.1;;;2.8;;
37365;SDS011;23239;51.504;7.456;2023-09-19T03:26:00;13.1;;;2.8;;
37365;SDS011;23239;51.504;7.456;2023-09-19T03:27:00;13.1;;;2.8;;
37365;SDS011;23239;51.504;7.456;2023-09-19T03:28:00;13.1;;;2.8;;
37365;SDS011;23239;51.504;7.456;2023-09-19T03:29:03;13.1;;;2.8;;
37365;SDS011;23239;51.504;7.456;2023-09-19T03:30:00;9.3;;;2.3;;
37365;SDS011;23239;51.504;7.456;2023-09-19T03:31:00;9.3;;;2.3;;
37365;SDS011;23239;51.504;7.456;2023-09-19T03:32:00;9.3;;;2.3;;
37365;SDS011;23239;51.504;7.456;2023-09-19T03:33:00;9.3;;;2.3;;
37365;SDS011;23239;51.504;7.456;2023-09-19T03:34:00;9.3;;;2.3;;
37365;SDS011;23239;51.504;7.456;2023-09-19T03:35:00;8.2;;;2.6;;
37365;SDS011;23239;51.504;7.456;2023-09-19T03:36:00;8.2;;;2.6;;
37365;SDS011;23239;51.504;7.456;2023-09-19T03:37:00;8.2;;;2.6;;
37365;SDS011;23239;51.504;7.456;2023-09-19T03:38:00;8.2;;;2.6;;
37365;SDS011;23239;51.504;7.456;2023-09-19T03:39:00;8.2;;;2.6;;
37365;SDS011;23239;51.504;7.456;2023-09-19T03:40:00;10.7;;;2.9;;
37365;SDS011;23239;51.504;7.456;2023-09-19T03:41:00;10.7;;;2.9;;
37365;SDS011;23239;51.504;7.456;2023-09-19T03:42:00;10.7;;;2.9;;
37365;SDS011;23239;51.504;7.456;2023-09-19T03:43:00;10.7;;;2.9;;
37365;SDS011;23239;51.504;7.456;2023-09-19T03:44:00;10.7;;;2.9;;
37365;SDS011;23239;51.504;7.456;2023-09-19T03:45:01;9.7;;;2.7;;
37365;SDS011;23239;51.504;7.456;2023-09-19T03:46:01;9.7;;;2.7;;
37365;SDS011;23239;51.504;7.456;2023-09-19T03:47:00;9.7;;;2.7;;
37365;SDS011;23239;51.504;7.456;2023-09-19T03:48:00;9.7;;;2.7;;
37365;SDS011;23239;51.504;7.456;2023-09-19T03:49:00;9.7;;;2.7;;
37365;SDS011;23239;51.504;7.456;2023-09-19T03:50:00;8.2;;;2.3;;
37365;SDS011;23239;51.504;7.456;2023-09-19T03:51:00;8.2;;;2.3;;
37365;SDS011;23239;51.504;7.456;2023-09-19T03:52:00;8.2;;;2.3;;
37365;SDS011;23239;51.504;7.456;2023-09-19T03:53:00;8.2;;;2.3;;
37365;SDS011;23239;51.504;7.456;2023-09-19T03:54:00;8.2;;;2.3;;
37365;SDS011;23239;51.504;7.456;2023-09-19T03:55:00;9.6;;;2.5;;
37365;SDS011;23239;51.504;7.456;2023-09-19T03:56:00;9.6;;;2.5;;
37365;SDS011;23239;51.504;7.456;2023-09-19T03:57:00;9.6;;;2.5;;
37365;SDS011;23239;51.504;7.456;2023-09-19T03:58:00;9.6;;;2.5;;
37365;SDS011;23239;51.504;7.456;2023-09-19T03:59:00;9.6;;;2.5;;
37365;SDS011;23239;51.504;7.456;2023-09-19T04:00:00;10.7;;;2.8;;
37365;SDS011;23239;51.504;7.456;2023-09-19T04:01:00;10.7;;;2.8;;
37365;SDS011;23239;51.504;7.456;2023-09-19T04:02:00;10.7;;;2.8;;
37365;SDS011;23239;51.504;7.456;2023-09-19T04:03:00;10.7;;;2.8;;
37365;SDS011;23239;51.504;7.456;2023-09-19T04:04:00;10.7;;;2.8;;
37365;SDS011;23239;51.504;7.456;2023-09-19T04:05:00;11.5;;;2.8;;
37365;SDS011;23239;51.504;7.456;2023-09-19T04:06:00;11.5;;;2.8;;
37365;SDS011;23239;51.504;7.456;2023-09-19T04:07:00;11.5;;;2.8;;
37365;SDS011;23239;51.504;7.456;2023-09-19T04:08:00;11.5;;;2.8;;
37365;SDS011;23239;51.504;7.456;2023-09-19T04:09:00;11.5;;;2.8;;
37365;SDS011;23239;51.504;7.456;2023-09-19T04:10:00;9.1;;;2.3;;
37365;SDS011;23239;51.504;7.456;2023-09-19T04:11:00;9.1;;;2.3;;
37365;SDS011;23239;51.504;7.456;2023-09-19T04:12:00;9.1;;;2.3;;
37365;SDS011;23239;51.504;7.456;2023-09-19T04:13:00;9.1;;;2.3;;
37365;SDS011;23239;51.504;7.456;2023-09-19T04:14:02;9.1;;;2.3;;
37365;SDS011;23239;51.504;7.456;2023-09-19T04:15:00;9.8;;;2.4;;
37365;SDS011;23239;51.504;7.456;2023-09-19T04:16:00;9.8;;;2.4;;
37365;SDS011;23239;51.504;7.456;2023-09-19T04:17:00;9.8;;;2.4;;
37365;SDS011;23239;51.504;7.456;2023-09-19T04:18:00;9.8;;;2.4;;
37365;SDS011;23239;51.504;7.456;2023-09-19T04:19:00;9.8;;;2.4;;
37365;SDS011;23239;51.504;7.456;2023-09-19T04:20:00;11.4;;;2.6;;
37365;SDS011;23239;51.504;7.456;2023-09-19T04:21:00;11.4;;;2.6;;
37365;SDS011;23239;51.504;7.456;2023-09-19T04:22:00;11.4;;;2.6;;
37365;SDS011;23239;51.504;7.456;2023-09-19T04:23:00;11.4;;;2.6;;
37365;SDS011;23239;51.504;7.456;2023-09-19T04:24:00;11.4;;;2.6;;
37365;SDS011;23239;51.504;7.456;2023-09-19T04:25:00;10.8;;;2.5;;
37365;SDS011;23239;51.504;7.456;2023-09-19T04:26:00;10.8;;;2.5;;
37365;SDS011;23239;51.504;7.456;2023-09-19T04:27:00;10.8;;;2.5;;
37365;SDS011;23239;51.504;7.456;2023-09-19T04:28:00;10.8;;;2.5;;
37365;SDS011;23239;51.504;7.456;2023-09-19T04:29:00;10.8;;;2.5;;
37365;SDS011;23239;51.504;7.456;2023-09-19T04:30:00;11.2;;;2.6;;
37365;SDS011;23239;51.504;7.456;2023-09-19T04:31:00;11.2;;;2.6;;
37365;SDS011;23239;51.504;7.456;2023-09-19T04:32:00;11.2;;;2.6;;
37365;SDS011;23239;51.504;7.456;2023-09-19T04:33:00;11.2;;;2.6;;
37365;SDS011;23239;51.504;7.456;2023-09-19T04:34:00;11.2;;;2.6;;
37365;SDS011;23239;51.504;7.456;2023-09-19T04:35:00;10.5;;;2.7;;
37365;SDS011;23239;51.504;7.456;2023-09-19T04:36:00;10.5;;;2.7;;
37365;SDS011;23239;51.504;7.456;2023-09-19T04:37:01;10.5;;;2.7;;
37365;SDS011;23239;51.504;7.456;2023-09-19T04:38:00;10.5;;;2.7;;
37365;SDS011;23239;51.504;7.456;2023-09-19T04:39:00;10.5;;;2.7;;
37365;SDS011;23239;51.504;7.456;2023-09-19T04:40:00;11.1;;;2.7;;
37365;SDS011;23239;51.504;7.456;2023-09-19T04:41:00;11.1;;;2.7;;
37365;SDS011;23239;51.504;7.456;2023-09-19T04:42:00;11.1;;;2.7;;
37365;SDS011;23239;51.504;7.456;2023-09-19T04:43:00;11.1;;;2.7;;
37365;SDS011;23239;51.504;7.456;2023-09-19T04:44:00;11.1;;;2.7;;
37365;SDS011;23239;51.504;7.456;2023-09-19T04:45:00;13.5;;;3.0;;
37365;SDS011;23239;51.504;7.456;2023-09-19T04:46:00;13.5;;;3.0;;
37365;SDS011;23239;51.504;7.456;2023-09-19T04:47:00;13.5;;;3.0;;
37365;SDS011;23239;51.504;7.456;2023-09-19T04:48:00;13.5;;;3.0;;
37365;SDS011;23239;51.504;7.456;2023-09-19T04:49:00;13.5;;;3.0;;
37365;SDS011;23239;51.504;7.456;2023-09-19T04:50:00;9.7;;;2.3;;
37365;SDS011;23239;51.504;7.456;2023-09-19T04:51:00;9.7;;;2.3;;
37365;SDS011;23239;51.504;7.456;2023-09-19T04:52:00;9.7;;;2.3;;
37365;SDS011;23239;51.504;7.456;2023-09-19T04:53:00;9.7;;;2.3;;
37365;SDS011;23239;51.504;7.456;2023-09-19T04:54:00;9.7;;;2.3;;
37365;SDS011;23239;51.504;7.456;2023-09-19T04:55:00;9.2;;;2.6;;
37365;SDS011;23239;51.504;7.456;2023-09-19T04:56:00;9.2;;;2.6;;
37365;SDS011;23239;51.504;7.456;2023-09-19T04:57:00;9.2;;;2.6;;
37365;SDS011;23239;51.504;7.456;2023-09-19T04:58:00;9.2;;;2.6;;
37365;SDS011;23239;51.504;7.456;2023-09-19T04:59:00;9.2;;;2.6;;
37365;SDS011;23239;51.504;7.456;2023-09-19T05:00:00;10.2;;;2.8;;
37365;SDS011;23239;51.504;7.456;2023-09-19T05:01:00;10.2;;;2.8;;
37365;SDS011;23239;51.504;7.456;2023-09-19T05:02:00;10.2;;;2.8;;
37365;SDS011;23239;51.504;7.456;2023-09-19T05:03:00;10.2;;;2.8;;
37365;SDS011;23239;51.504;7.456;2023-09-19T05:04:00;10.2;;;2.8;;
37365;SDS011;23239;51.504;7.456;2023-09-19T05:05:00;13.7;;;3.3;;
37365;SDS011;23239;51.504;7.456;2023-09-19T05:06:00;13.7;;;3.3;;
37365;SDS011;23239;51.504;7.456;2023-09-19T05:07:00;13.7;;;3.3;;
37365;SDS011;23239;51.504;7.456;2023-09-19T05:08:00;13.7;;;3.3;;
37365;SDS011;23239;51.504;7.456;2023-09-19T05:09:00;13.7;;;3.3;;
37365;SDS011;23239;51.504;7.456;2023-09-19T05:10:01;10.3;;;3.3;;
37365;SDS011;23239;51.504;7.456;2023-09-19T05:11:01;10.3;;;3.3;;
37365;SDS011;23239;51.504;7.456;2023-09-19T05:12:00;10.3;;;3.3;;
37365;SDS011;23239;51.504;7.456;2023-09-19T05:13:01;10.3;;;3.3;;
37365;SDS011;23239;51.504;7.456;2023-09-19T05:14:00;10.3;;;3.3;;
37365;SDS011;23239;51.504;7.456;2023-09-19T05:15:00;10.9;;;2.7;;
37365;SDS011;23239;51.504;7.456;2023-09-19T05:16:00;10.9;;;2.7;;
37365;SDS011;23239;51.504;7.456;2023-09-19T05:17:00;10.9;;;2.7;;
37365;SDS011;23239;51.504;7.456;2023-09-19T05:18:00;10.9;;;2.7;;
37365;SDS011;23239;51.504;7.456;2023-09-19T05:19:00;10.9;;;2.7;;
37365;SDS011;23239;51.504;7.456;2023-09-19T05:20:00;13.4;;;2.8;;
37365;SDS011;23239;51.504;7.456;2023-09-19T05:21:01;13.4;;;2.8;;
37365;SDS011;23239;51.504;7.456;2023-09-19T05:22:00;13.4;;;2.8;;
37365;SDS011;23239;51.504;7.456;2023-09-19T05:23:00;13.4;;;2.8;;
37365;SDS011;23239;51.504;7.456;2023-09-19T05:24:00;13.4;;;2.8;;
37365;SDS011;23239;51.504;7.456;2023-09-19T05:25:00;12.4;;;3.2;;
37365;SDS011;23239;51.504;7.456;2023-09-19T05:26:00;12.4;;;3.2;;
37365;SDS011;23239;51.504;7.456;2023-09-19T05:27:00;12.4;;;3.2;;
37365;SDS011;23239;51.504;7.456;2023-09-19T05:28:00;12.4;;;3.2;;
37365;SDS011;23239;51.504;7.456;2023-09-19T05:29:01;12.4;;;3.2;;
37365;SDS011;23239;51.504;7.456;2023-09-19T05:30:00;9.0;;;2.3;;
37365;SDS011;23239;51.504;7.456;2023-09-19T05:31:00;9.0;;;2.3;;
37365;SDS011;23239;51.504;7.456;2023-09-19T05:32:00;9.0;;;2.3;;
37365;SDS011;23239;51.504;7.456;2023-09-19T05:33:00;9.0;;;2.3;;
37365;SDS011;23239;51.504;7.456;2023-09-19T05:34:00;9.0;;;2.3;;
37365;SDS011;23239;51.504;7.456;2023-09-19T05:35:00;9.0;;;2.7;;
37365;SDS011;23239;51.504;7.456;2023-09-19T05:36:00;9.0;;;2.7;;
37365;SDS011;23239;51.504;7.456;2023-09-19T05:37:00;9.0;;;2.7;;
37365;SDS011;23239;51.504;7.456;2023-09-19T05:38:00;9.0;;;2.7;;
37365;SDS011;23239;51.504;7.456;2023-09-19T05:39:00;9.0;;;2.7;;
37365;SDS011;23239;51.504;7.456;2023-09-19T05:40:00;8.0;;;2.3;;
37365;SDS011;23239;51.504;7.456;2023-09-19T05:41:00;8.0;;;2.3;;
37365;SDS011;23239;51.504;7.456;2023-09-19T05:42:00;8.0;;;2.3;;
37365;SDS011;23239;51.504;7.456;2023-09-19T05:43:00;8.0;;;2.3;;
37365;SDS011;23239;51.504;7.456;2023-09-19T05:44:00;8.0;;;2.3;;
37365;SDS011;23239;51.504;7.456;2023-09-19T05:45:00;11.4;;;3.1;;
37365;SDS011;23239;51.504;7.456;2023-09-19T05:46:00;11.4;;;3.1;;
37365;SDS011;23239;51.504;7.456;2023-09-19T05:47:00;11.4;;;3.1;;
37365;SDS011;23239;51.504;7.456;2023-09-19T05:48:06;11.4;;;3.1;;
37365;SDS011;23239;51.504;7.456;2023-09-19T05:49:00;11.4;;;3.1;;
37365;SDS011;23239;51.504;7.456;2023-09-19T05:50:00;10.8;;;3.0;;
37365;SDS011;23239;51.504;7.456;2023-09-19T05:51:00;10.8;;;3.0;;
37365;SDS011;23239;51.504;7.456;2023-09-19T05:52:00;10.8;;;3.0;;
37365;SDS011;23239;51.504;7.456;2023-09-19T05:53:00;10.8;;;3.0;;
37365;SDS011;23239;51.504;7.456;2023-09-19T05:55:00;8.8;;;2.9;;
37365;SDS011;23239;51.504;7.456;2023-09-19T05:56:00;8.8;;;2.9;;
37365;SDS011;23239;51.504;7.456;2023-09-19T05:57:00;8.8;;;2.9;;
37365;SDS011;23239;51.504;7.456;2023-09-19T05:58:00;8.8;;;2.9;;
37365;SDS011;23239;51.504;7.456;2023-09-19T05:59:00;8.8;;;2.9;;
37365;SDS011;23239;51.504;7.456;2023-09-19T06:00:00;11.4;;;3.0;;
37365;SDS011;23239;51.504;7.456;2023-09-19T06:01:00;11.4;;;3.0;;
37365;SDS011;23239;51.504;7.456;2023-09-19T06:02:00;11.4;;;3.0;;
37365;SDS011;23239;51.504;7.456;2023-09-19T06:03:00;11.4;;;3.0;;
37365;SDS011;23239;51.504;7.456;2023-09-19T06:04:00;11.4;;;3.0;;
37365;SDS011;23239;51.504;7.456;2023-09-19T06:05:00;9.9;;;3.0;;
37365;SDS011;23239;51.504;7.456;2023-09-19T06:06:00;9.9;;;3.0;;
37365;SDS011;23239;51.504;7.456;2023-09-19T06:07:01;9.9;;;3.0;;
37365;SDS011;23239;51.504;7.456;2023-09-19T06:08:00;9.9;;;3.0;;
37365;SDS011;23239;51.504;7.456;2023-09-19T06:09:00;9.9;;;3.0;;
37365;SDS011;23239;51.504;7.456;2023-09-19T06:10:00;13.6;;;3.0;;
37365;SDS011;23239;51.504;7.456;2023-09-19T06:11:01;13.6;;;3.0;;